Time;durP1;ratioP1;P1;durP2;ratioP2;P2;SDS_P1;SDS_P2;PMS_P1;PMS_P2;Temp;Humidity;BMP_temperature;BMP_pressure;BME280_temperature;BME280_humidity;BME280_pressure;Samples;Min_cycle;Max_cycle;Signal;HPM_P1;HPM_P2
2023/08/17 00:01:31;;;;;;;12.00;8.13;;;;;;;17.29;100.00;101244.16;6203904;23;20043;-72
2023/08/17 00:03:58;;;;;;;8.38;7.65;;;;;;;17.99;100.00;101370.94;6184567;23;20032;-70
2023/08/17 00:06:25;;;;;;;8.73;8.02;;;;;;;17.50;100.00;101294.81;6176949;23;20088;-71
2023/08/17 00:08:52;;;;;;;10.68;8.43;;;;;;;17.78;100.00;101362.72;6199213;23;20018;-71
2023/08/17 00:11:18;;;;;;;8.30;7.57;;;;;;;16.66;100.00;101179.66;6192798;23;20085;-71
2023/08/17 00:13:45;;;;;;;9.93;8.10;;;;;;;18.10;100.00;101415.31;6197314;23;20040;-72
2023/08/17 00:16:12;;;;;;;8.43;7.63;;;;;;;17.01;100.00;101243.44;6191985;23;20096;-71
2023/08/17 00:18:38;;;;;;;9.27;7.97;;;;;;;16.87;100.00;101207.31;6175542;23;20020;-70
2023/08/17 00:21:05;;;;;;;8.60;7.80;;;;;;;18.05;100.00;101402.38;6202995;23;21275;-71
2023/08/17 00:23:31;;;;;;;8.73;7.72;;;;;;;17.85;100.00;101366.63;6204177;23;20023;-70
2023/08/17 00:25:58;;;;;;;8.50;7.75;;;;;;;17.60;100.00;101321.53;6203220;23;20048;-70
2023/08/17 00:28:25;;;;;;;9.52;7.72;;;;;;;17.52;100.00;101327.41;6194852;23;20028;-71
2023/08/17 00:30:52;;;;;;;8.88;8.18;;;;;;;17.55;100.00;101324.53;6169727;23;20041;-73
2023/08/17 00:33:21;;;;;;;8.88;8.05;;;;;;;17.55;100.00;101332.50;6203852;23;20030;-71
2023/08/17 00:35:47;;;;;;;8.48;7.55;;;;;;;16.71;100.00;101228.69;6201004;23;20027;-72
2023/08/17 00:38:14;;;;;;;8.98;8.02;;;;;;;17.04;100.00;101256.50;6205397;23;20039;-71
2023/08/17 00:40:40;;;;;;;9.05;8.15;;;;;;;17.53;100.00;101345.03;6196438;23;20038;-71
2023/08/17 00:43:07;;;;;;;9.43;8.63;;;;;;;17.15;100.00;101279.59;6199847;23;20027;-71
2023/08/17 00:45:35;;;;;;;9.07;8.23;;;;;;;17.86;100.00;101397.56;6198037;23;20027;-71
2023/08/17 00:48:03;;;;;;;10.20;9.20;;;;;;;17.83;100.00;101396.88;6180477;23;20024;-71
2023/08/17 00:50:29;;;;;;;9.50;8.80;;;;;;;16.97;100.00;101257.03;6201290;23;20055;-72
2023/08/17 00:52:57;;;;;;;9.90;8.82;;;;;;;17.79;100.00;101401.56;6202301;23;20119;-71
2023/08/17 00:55:24;;;;;;;9.93;9.13;;;;;;;17.66;100.00;101385.66;6170840;23;20021;-71
2023/08/17 00:57:52;;;;;;;9.95;8.43;;;;;;;17.78;100.00;101391.91;6175944;23;20020;-71
2023/08/17 01:00:19;;;;;;;11.85;8.85;;;;;;;17.65;100.00;101368.03;6200546;23;20039;-71
2023/08/17 01:02:46;;;;;;;9.38;8.48;;;;;;;16.82;100.00;101216.53;6174719;23;20032;-71
2023/08/17 01:05:13;;;;;;;13.70;9.23;;;;;;;17.52;100.00;101332.72;6173014;23;20937;-71
2023/08/17 01:07:39;;;;;;;8.05;7.55;;;;;;;17.38;100.00;101301.00;6197489;23;20032;-71
2023/08/17 01:10:07;;;;;;;9.18;8.30;;;;;;;17.57;100.00;101340.34;6194871;23;20021;-71
2023/08/17 01:12:42;;;;;;;9.77;8.98;;;;;;;16.82;100.00;101216.53;6170034;23;20524;-71
2023/08/17 01:15:17;;;;;;;8.98;8.20;;;;;;;17.78;100.00;101367.16;6169490;23;20083;-71
2023/08/17 01:18:25;;;;;;;9.30;8.60;;;;;;;17.76;100.00;101364.63;6197453;23;20084;-71
2023/08/17 01:20:53;;;;;;;9.02;8.32;;;;;;;17.76;100.00;101364.63;6167224;23;20024;-71
2023/08/17 01:23:20;;;;;;;8.85;8.07;;;;;;;17.77;100.00;101366.31;6199413;23;20091;-71
2023/08/17 01:25:47;;;;;;;11.07;8.30;;;;;;;17.79;100.00;101372.34;6199271;23;20071;-72
2023/08/17 01:28:13;;;;;;;9.60;8.82;;;;;;;17.56;100.00;101326.25;6201099;23;20608;-71
2023/08/17 01:31:08;;;;;;;8.65;7.95;;;;;;;16.83;100.00;101212.94;6201667;23;20107;-71
2023/08/17 01:33:47;;;;;;;8.77;8.07;;;;;;;17.41;100.00;101308.75;6199334;23;20020;-71
2023/08/17 01:36:22;;;;;;;8.50;7.90;;;;;;;17.50;100.00;101316.91;6200434;23;20071;-71
2023/08/17 01:38:52;;;;;;;8.27;7.68;;;;;;;17.24;100.00;101275.44;6202267;23;20106;-70
2023/08/17 01:41:20;;;;;;;8.98;8.00;;;;;;;17.57;100.00;101341.19;6199410;23;20043;-71
2023/08/17 01:43:48;;;;;;;8.88;8.18;;;;;;;17.78;100.00;101368.03;6197759;23;20013;-71
2023/08/17 01:46:16;;;;;;;8.05;7.45;;;;;;;17.62;100.00;101335.53;6196565;23;20051;-71
2023/08/17 01:48:43;;;;;;;10.65;8.20;;;;;;;17.73;100.00;101355.06;6204348;23;20020;-71
2023/08/17 01:51:11;;;;;;;8.43;7.72;;;;;;;16.72;100.00;101195.13;6203162;23;20044;-71
2023/08/17 01:53:38;;;;;;;9.05;8.30;;;;;;;17.69;100.00;101360.69;6197886;23;20552;-71
2023/08/17 01:56:04;;;;;;;8.65;7.95;;;;;;;17.63;100.00;101348.72;6201164;23;20104;-71
2023/08/17 01:58:30;;;;;;;8.70;7.80;;;;;;;17.66;100.00;101355.59;6202943;23;20051;-71
2023/08/17 02:00:57;;;;;;;8.32;7.72;;;;;;;16.97;100.00;101247.28;6183814;23;20092;-71
2023/08/17 02:03:23;;;;;;;8.50;7.70;;;;;;;17.61;100.00;101358.59;6198345;23;20030;-71
2023/08/17 02:05:50;;;;;;;9.07;7.55;;;;;;;17.58;100.00;101348.22;6176742;23;20035;-70
2023/08/17 02:08:16;;;;;;;8.60;7.90;;;;;;;17.59;100.00;101357.00;6204468;23;20095;-70
2023/08/17 02:10:43;;;;;;;8.32;7.72;;;;;;;16.08;100.00;101108.56;6203824;23;20640;-70
2023/08/17 02:13:09;;;;;;;8.23;7.63;;;;;;;17.42;100.00;101343.13;6177803;23;20032;-70
2023/08/17 02:15:44;;;;;;;10.80;7.85;;;;;;;16.51;100.00;101193.00;6194998;23;20089;-71
2023/08/17 02:18:10;;;;;;;8.90;8.07;;;;;;;17.52;100.00;101348.66;6151054;23;20035;-70
2023/08/17 02:20:36;;;;;;;8.88;8.15;;;;;;;17.67;100.00;101362.63;6199487;23;20051;-70
2023/08/17 02:23:03;;;;;;;8.25;7.65;;;;;;;17.53;100.00;101332.59;6175711;23;20160;-70
2023/08/17 02:25:35;;;;;;;8.32;7.68;;;;;;;17.64;100.00;101346.91;6178899;23;20600;-70
2023/08/17 02:28:03;;;;;;;8.53;7.83;;;;;;;17.43;100.00;101304.19;6177506;23;20609;-71
2023/08/17 02:30:30;;;;;;;7.78;7.28;;;;;;;16.47;100.00;101146.47;6175481;23;20031;-70
2023/08/17 02:32:57;;;;;;;8.52;7.78;;;;;;;16.79;100.00;101191.06;6204181;23;20018;-71
2023/08/17 02:35:24;;;;;;;8.30;7.60;;;;;;;17.16;100.00;101273.38;6200602;23;20024;-70
2023/08/17 02:37:50;;;;;;;7.90;7.30;;;;;;;16.98;100.00;101222.47;6144047;23;20546;-71
2023/08/17 02:40:17;;;;;;;7.85;7.35;;;;;;;17.87;100.00;101358.56;6202653;23;20004;-70
2023/08/17 02:42:44;;;;;;;8.15;7.38;;;;;;;17.74;100.00;101334.69;6175912;23;20471;-70
2023/08/17 02:45:10;;;;;;;8.13;7.53;;;;;;;16.70;100.00;101147.50;6204622;23;20020;-71
2023/08/17 02:47:37;;;;;;;8.20;7.57;;;;;;;17.96;100.00;101346.41;6173936;23;20028;-70
2023/08/17 02:50:04;;;;;;;7.35;6.85;;;;;;;17.87;100.00;101335.50;6201671;23;20027;-70
2023/08/17 02:52:30;;;;;;;7.70;7.15;;;;;;;17.75;100.00;101296.53;6196278;23;20047;-70
2023/08/17 02:54:57;;;;;;;7.30;6.85;;;;;;;17.96;100.00;101322.50;6195007;23;20024;-70
2023/08/17 02:57:23;;;;;;;7.93;7.25;;;;;;;17.69;100.00;101271.28;6169994;23;20059;-71
2023/08/17 02:59:50;;;;;;;8.25;7.13;;;;;;;17.89;100.00;101298.22;6202360;23;20087;-70
2023/08/17 03:02:17;;;;;;;7.22;6.72;;;;;;;17.40;100.00;101220.34;6147163;23;20679;-71
2023/08/17 03:04:43;;;;;;;7.45;6.95;;;;;;;18.01;100.00;101321.22;6201384;23;20537;-70
2023/08/17 03:07:09;;;;;;;8.05;6.72;;;;;;;17.93;100.00;101305.84;6174101;23;20082;-70
2023/08/17 03:09:36;;;;;;;8.07;7.40;;;;;;;17.27;100.00;101196.50;6179972;23;20454;-70
2023/08/17 03:12:03;;;;;;;7.40;6.90;;;;;;;17.95;100.00;101297.78;6201692;23;20079;-70
2023/08/17 03:14:29;;;;;;;7.63;7.03;;;;;;;18.01;100.00;101325.69;6182658;23;20018;-71
2023/08/17 03:16:55;;;;;;;8.18;7.43;;;;;;;17.93;100.00;101312.97;6177310;23;20020;-70
2023/08/17 03:19:22;;;;;;;7.68;7.18;;;;;;;17.86;100.00;101315.25;6197500;23;20468;-71
2023/08/17 03:21:48;;;;;;;7.35;6.72;;;;;;;16.77;100.00;101166.47;6199369;23;20095;-71
2023/08/17 03:24:15;;;;;;;8.48;7.55;;;;;;;17.76;100.00;101330.13;6201569;23;20019;-71
2023/08/17 03:26:41;;;;;;;7.80;7.20;;;;;;;17.68;100.00;101328.00;6203505;23;20111;-70
2023/08/17 03:29:09;;;;;;;7.72;7.00;;;;;;;16.65;100.00;101167.34;6175211;23;20023;-70
2023/08/17 03:31:36;;;;;;;8.70;7.90;;;;;;;17.66;100.00;101337.88;6173052;23;20043;-71
2023/08/17 03:34:02;;;;;;;8.02;7.25;;;;;;;17.65;100.00;101343.31;6203348;23;20031;-70
2023/08/17 03:36:29;;;;;;;8.05;7.25;;;;;;;17.48;100.00;101349.78;6204092;23;20096;-70
2023/08/17 03:38:55;;;;;;;8.02;6.80;;;;;;;17.55;100.00;101351.06;6198964;23;20102;-71
2023/08/17 03:41:25;;;;;;;8.10;7.30;;;;;;;16.69;100.00;101222.66;6174312;23;20099;-71
2023/08/17 03:43:51;;;;;;;8.27;7.47;;;;;;;17.20;100.00;101319.06;6201758;23;20027;-70
2023/08/17 03:46:18;;;;;;;7.22;6.60;;;;;;;17.45;100.00;101372.09;6203450;23;20734;-70
2023/08/17 03:48:44;;;;;;;7.47;6.97;;;;;;;16.09;100.00;101157.06;6203010;23;20025;-70
2023/08/17 03:51:11;;;;;;;7.95;7.15;;;;;;;17.27;100.00;101357.47;6198549;23;20028;-70
2023/08/17 03:53:37;;;;;;;7.97;7.18;;;;;;;16.34;100.00;101202.09;6200063;23;20047;-70
2023/08/17 03:56:04;;;;;;;8.32;7.70;;;;;;;17.15;100.00;101354.72;6202384;23;20058;-72
2023/08/17 03:58:34;;;;;;;7.85;7.20;;;;;;;17.33;100.00;101384.41;6201673;23;20047;-70
2023/08/17 04:01:01;;;;;;;8.20;7.43;;;;;;;17.32;100.00;101397.81;6175313;23;20015;-70
2023/08/17 04:03:28;;;;;;;9.25;8.32;;;;;;;16.02;100.00;101187.56;6198958;23;20502;-69
2023/08/17 04:05:55;;;;;;;11.07;8.50;;;;;;;17.15;100.00;101415.72;6201432;23;20012;-70
2023/08/17 04:08:21;;;;;;;10.50;8.65;;;;;;;16.98;100.00;101370.09;6167574;23;20046;-70
2023/08/17 04:10:48;;;;;;;10.90;8.85;;;;;;;17.15;100.00;101399.81;6202242;23;20100;-70
2023/08/17 04:13:14;;;;;;;10.18;9.20;;;;;;;17.06;100.00;101402.22;6199691;23;20095;-70
2023/08/17 04:15:41;;;;;;;9.80;8.80;;;;;;;16.11;100.00;101282.25;6152997;23;20033;-69
2023/08/17 04:18:07;;;;;;;14.32;8.38;;;;;;;16.88;100.00;101388.44;6201109;23;20028;-70
2023/08/17 04:20:34;;;;;;;10.52;9.43;;;;;;;16.06;100.00;101266.69;6197647;23;20024;-70
2023/08/17 04:23:00;;;;;;;10.48;9.38;;;;;;;15.91;100.00;101262.38;6198178;23;20028;-71
2023/08/17 04:25:27;;;;;;;13.02;10.43;;;;;;;16.83;100.00;101425.84;6174601;23;20019;-70
2023/08/17 04:27:53;;;;;;;16.08;11.20;;;;;;;15.93;100.00;101279.84;6200479;23;20024;-71
2023/08/17 04:30:20;;;;;;;14.82;11.20;;;;;;;16.91;100.00;101426.19;6169027;23;20024;-71
2023/08/17 04:32:52;;;;;;;12.38;10.23;;;;;;;16.97;100.00;101432.03;6201970;23;20024;-70
2023/08/17 04:35:19;;;;;;;15.77;11.07;;;;;;;16.94;100.00;101430.47;6199153;23;20509;-71
2023/08/17 04:37:47;;;;;;;14.13;10.82;;;;;;;15.74;100.00;101239.69;6174282;23;20587;-70
2023/08/17 04:40:14;;;;;;;13.93;11.27;;;;;;;16.23;100.00;101313.22;6198552;23;20537;-70
2023/08/17 04:42:40;;;;;;;18.23;11.32;;;;;;;16.97;100.00;101429.38;6201418;23;20043;-69
2023/08/17 04:45:07;;;;;;;17.10;11.13;;;;;;;16.99;100.00;101425.66;6201429;23;20024;-70
2023/08/17 04:47:34;;;;;;;14.40;10.32;;;;;;;16.96;100.00;101410.00;6202595;23;20047;-70
2023/08/17 04:50:00;;;;;;;15.85;11.60;;;;;;;16.74;100.00;101382.25;6173592;23;20375;-70
2023/08/17 04:52:27;;;;;;;14.95;11.70;;;;;;;16.88;100.00;101404.34;6168568;23;20029;-69
2023/08/17 04:54:53;;;;;;;15.93;10.82;;;;;;;16.80;100.00;101398.66;6148417;23;20211;-69
2023/08/17 04:57:20;;;;;;;12.30;10.32;;;;;;;16.98;100.00;101426.66;6171769;23;20102;-70
2023/08/17 04:59:46;;;;;;;11.80;10.57;;;;;;;17.06;100.00;101432.28;6200223;23;20108;-70
2023/08/17 05:02:13;;;;;;;11.68;9.93;;;;;;;15.73;100.00;101243.25;6195181;23;20056;-70
2023/08/17 05:04:39;;;;;;;17.55;11.65;;;;;;;15.87;100.00;101223.84;6179153;23;20105;-70
2023/08/17 05:07:06;;;;;;;11.60;10.38;;;;;;;16.80;100.00;101380.97;6200917;23;20013;-70
2023/08/17 05:09:35;;;;;;;14.15;9.93;;;;;;;17.20;100.00;101435.78;6176099;23;20020;-70
2023/08/17 05:12:01;;;;;;;13.48;9.13;;;;;;;17.08;100.00;101427.72;6175652;23;20096;-70
2023/08/17 05:14:28;;;;;;;13.45;10.15;;;;;;;17.22;100.00;101440.03;6198338;23;20027;-69
2023/08/17 05:16:54;;;;;;;10.88;9.77;;;;;;;17.27;100.00;101423.78;6201942;23;20024;-70
2023/08/17 05:19:21;;;;;;;11.20;8.77;;;;;;;16.19;100.00;101245.50;6194050;23;20013;-71
2023/08/17 05:21:50;;;;;;;9.68;8.48;;;;;;;17.01;100.00;101393.75;6204680;23;20028;-70
2023/08/17 05:24:17;;;;;;;11.60;8.23;;;;;;;15.86;100.00;101177.16;6179360;23;20431;-70
2023/08/17 05:26:44;;;;;;;12.07;8.77;;;;;;;17.19;100.00;101386.34;6170628;23;20025;-70
2023/08/17 05:29:10;;;;;;;9.43;8.52;;;;;;;16.27;100.00;101235.25;6205434;23;20097;-70
2023/08/17 05:31:36;;;;;;;12.95;8.38;;;;;;;17.27;100.00;101376.03;6172074;23;20076;-70
2023/08/17 05:34:07;;;;;;;9.70;7.85;;;;;;;17.42;100.00;101398.88;6177141;23;20111;-70
2023/08/17 05:36:33;;;;;;;8.30;7.60;;;;;;;16.44;100.00;101235.94;6175131;23;20025;-70
2023/08/17 05:39:00;;;;;;;9.27;8.27;;;;;;;16.20;100.00;101188.13;6200162;22;20020;-70
2023/08/17 05:41:26;;;;;;;8.63;7.93;;;;;;;16.54;100.00;101248.44;6208320;23;20036;-71
2023/08/17 05:43:52;;;;;;;11.35;8.40;;;;;;;16.28;100.00;101215.78;6175990;23;20016;-71
2023/08/17 05:46:19;;;;;;;9.48;8.57;;;;;;;16.12;100.00;101181.53;6204378;23;20027;-70
2023/08/17 05:48:45;;;;;;;9.48;8.52;;;;;;;17.30;100.00;101371.38;6207229;23;20081;-70
2023/08/17 05:51:12;;;;;;;9.45;8.27;;;;;;;17.17;100.00;101348.47;6205098;23;20020;-70
2023/08/17 05:53:38;;;;;;;9.13;8.23;;;;;;;17.31;100.00;101349.19;6154625;23;20032;-70
2023/08/17 05:56:05;;;;;;;9.48;8.57;;;;;;;17.39;100.00;101359.25;6207647;23;20090;-70
2023/08/17 05:58:31;;;;;;;8.65;7.85;;;;;;;17.37;100.00;101341.75;6202466;23;20020;-70
2023/08/17 06:01:08;;;;;;;9.65;8.70;;;;;;;17.63;100.00;101361.16;6201007;23;20064;-70
2023/08/17 06:03:36;;;;;;;11.82;8.18;;;;;;;17.89;100.00;101378.72;6177175;23;20051;-71
2023/08/17 06:06:05;;;;;;;10.25;8.30;;;;;;;17.06;100.00;101235.16;6175777;23;20120;-70
2023/08/17 06:08:31;;;;;;;9.75;8.85;;;;;;;17.82;100.00;101361.53;6177626;23;20028;-70
2023/08/17 06:10:58;;;;;;;9.48;8.48;;;;;;;18.02;100.00;101370.72;6204204;23;20020;-69
2023/08/17 06:13:25;;;;;;;9.90;8.85;;;;;;;16.96;100.00;101195.22;6207448;23;20115;-70
2023/08/17 06:15:51;;;;;;;11.65;8.60;;;;;;;18.33;100.00;101358.69;6201772;23;20051;-70
2023/08/17 06:18:20;;;;;;;10.63;8.93;;;;;;;18.21;100.00;101338.34;6202848;22;20019;-72
2023/08/17 06:20:48;;;;;;;9.63;7.95;;;;;;;18.35;100.00;101326.69;6173405;23;20587;-70
2023/08/17 06:23:14;;;;;;;9.15;8.10;;;;;;;18.47;100.00;101328.41;6203845;23;20021;-70
2023/08/17 06:25:40;;;;;;;9.20;8.32;;;;;;;18.55;100.00;101322.53;6202218;23;20040;-70
2023/08/17 06:28:07;;;;;;;12.95;8.15;;;;;;;18.49;100.00;101291.09;6202040;23;20031;-71
2023/08/17 06:30:33;;;;;;;11.20;8.50;;;;;;;18.62;100.00;101304.28;6203330;23;20023;-70
2023/08/17 06:33:00;;;;;;;11.55;9.52;;;;;;;17.63;100.00;101149.63;6164564;23;20047;-70
2023/08/17 06:35:26;;;;;;;9.02;8.10;;;;;;;18.64;100.00;101294.38;6174660;23;20035;-72
2023/08/17 06:37:57;;;;;;;9.70;7.97;;;;;;;17.41;100.00;101104.44;6201118;23;20095;-71
2023/08/17 06:40:24;;;;;;;10.05;8.30;;;;;;;18.42;100.00;101290.72;6200310;23;20486;-70
2023/08/17 06:42:52;;;;;;;13.18;8.27;;;;;;;18.27;100.00;101263.47;6171394;23;20078;-71
2023/08/17 06:45:18;;;;;;;10.75;8.20;;;;;;;17.12;100.00;101047.28;6206599;23;20088;-70
2023/08/17 06:47:45;;;;;;;9.35;8.45;;;;;;;18.52;100.00;101286.41;6204052;23;20043;-70
2023/08/17 06:50:12;;;;;;;9.00;8.18;;;;;;;18.59;100.00;101299.22;6207410;23;20020;-70
2023/08/17 06:52:40;;;;;;;8.80;7.68;;;;;;;17.94;100.00;101176.56;6199797;23;20024;-70
2023/08/17 06:55:06;;;;;;;8.10;7.40;;;;;;;18.81;100.00;101299.28;6175192;23;20111;-70
2023/08/17 06:57:33;;;;;;;9.00;8.10;;;;;;;18.94;100.00;101291.19;6177418;23;20028;-70
2023/08/17 07:00:00;;;;;;;10.07;8.45;;;;;;;19.01;100.00;101289.75;6180938;23;20040;-70
2023/08/17 07:02:26;;;;;;;9.77;8.13;;;;;;;18.63;100.00;101269.59;6208251;23;20088;-70
2023/08/17 07:05:05;;;;;;;9.13;8.25;;;;;;;18.56;100.00;101278.16;6204131;23;20071;-71
2023/08/17 07:07:35;;;;;;;9.77;8.82;;;;;;;18.50;100.00;101293.63;6178375;23;20083;-70
2023/08/17 07:10:01;;;;;;;8.73;7.93;;;;;;;18.48;100.00;101281.41;6206974;23;20069;-70
2023/08/17 07:12:28;;;;;;;9.38;8.40;;;;;;;18.29;100.00;101272.19;6211382;23;20012;-70
2023/08/17 07:14:55;;;;;;;11.00;8.57;;;;;;;18.18;100.00;101285.44;6207165;23;20012;-69
2023/08/17 07:17:22;;;;;;;14.48;8.50;;;;;;;18.49;100.00;101307.88;6206207;23;20019;-69
2023/08/17 07:19:49;;;;;;;9.45;8.48;;;;;;;18.03;100.00;101194.47;6171990;23;20008;-70
2023/08/17 07:22:35;;;;;;;12.13;7.88;;;;;;;17.82;100.00;101108.44;6181273;23;20020;-70
2023/08/17 07:25:03;;;;;;;11.15;8.18;;;;;;;18.90;100.00;101276.44;6174223;23;20027;-70
2023/08/17 07:27:30;;;;;;;8.60;7.72;;;;;;;18.99;100.00;101258.94;6202992;23;20008;-70
2023/08/17 07:29:56;;;;;;;9.32;8.23;;;;;;;18.77;100.00;101212.69;6178976;23;20309;-70
2023/08/17 07:32:24;;;;;;;9.73;8.82;;;;;;;17.99;100.00;101068.19;6207143;23;20079;-70
2023/08/17 07:34:51;;;;;;;9.15;8.27;;;;;;;19.35;100.00;101249.81;6202190;23;20024;-70
2023/08/17 07:37:18;;;;;;;10.60;8.80;;;;;;;18.50;100.00;101112.91;6180754;23;20021;-69
2023/08/17 07:39:44;;;;;;;9.50;8.52;;;;;;;19.29;100.00;101234.34;6201552;23;20044;-70
2023/08/17 07:42:11;;;;;;;9.57;8.52;;;;;;;19.46;100.00;101264.91;6206297;23;20880;-70
2023/08/17 07:44:39;;;;;;;9.63;8.60;;;;;;;19.65;100.00;101235.00;6200850;23;20497;-70
2023/08/17 07:47:06;;;;;;;13.00;8.70;;;;;;;19.57;100.00;101218.81;6203331;23;20942;-70
2023/08/17 07:49:32;;;;;;;9.02;8.23;;;;;;;19.66;100.00;101228.69;6203167;23;20532;-70
2023/08/17 07:51:59;;;;;;;9.98;9.07;;;;;;;19.63;100.00;101215.63;6177570;23;20637;-70
2023/08/17 07:54:26;;;;;;;10.55;9.55;;;;;;;18.74;100.00;101086.19;6181919;23;20080;-70
2023/08/17 07:56:54;;;;;;;10.25;9.25;;;;;;;19.92;100.00;101207.91;6163252;23;20020;-70
2023/08/17 07:59:21;;;;;;;11.07;10.07;;;;;;;19.23;100.00;101043.25;6196416;23;20039;-70
2023/08/17 08:01:48;;;;;;;10.23;8.93;;;;;;;19.97;100.00;101128.44;6200403;23;20024;-70
2023/08/17 08:04:14;;;;;;;18.23;17.05;;;;;;;19.45;100.00;101032.50;6140357;23;20032;-70
2023/08/17 08:06:42;;;;;;;9.80;8.90;;;;;;;19.45;99.83;101015.69;6086003;23;20031;-70
2023/08/17 08:09:08;;;;;;;10.18;8.80;;;;;;;18.91;100.00;100980.28;6198826;23;20088;-71
2023/08/17 08:11:35;;;;;;;9.20;8.32;;;;;;;20.38;100.00;101192.50;6183432;23;20016;-70
2023/08/17 08:14:01;;;;;;;9.55;8.73;;;;;;;19.87;100.00;101159.50;6142976;23;20095;-67
2023/08/17 08:16:30;;;;;;;9.25;8.35;;;;;;;19.91;100.00;101199.06;6203097;23;20649;-68
2023/08/17 08:19:00;;;;;;;9.63;8.45;;;;;;;20.24;100.00;101194.53;6201524;23;20008;-68
2023/08/17 08:21:27;;;;;;;9.77;8.88;;;;;;;20.10;100.00;101161.06;6201170;23;20024;-69
2023/08/17 08:23:54;;;;;;;10.13;9.13;;;;;;;19.99;100.00;101157.63;6199961;23;20016;-69
2023/08/17 08:26:20;;;;;;;9.40;8.43;;;;;;;19.37;100.00;101053.59;6198502;23;20020;-69
2023/08/17 08:28:47;;;;;;;9.25;8.30;;;;;;;20.00;100.00;101191.28;6200306;22;20753;-68
2023/08/17 08:31:13;;;;;;;9.88;9.00;;;;;;;20.19;100.00;101199.41;6176169;23;20100;-68
2023/08/17 08:33:39;;;;;;;10.65;9.57;;;;;;;20.17;100.00;101172.06;6199824;23;20103;-68
2023/08/17 08:36:06;;;;;;;14.90;9.05;;;;;;;20.23;100.00;101170.69;6204390;23;21122;-68
2023/08/17 08:38:33;;;;;;;11.13;8.77;;;;;;;20.46;100.00;101166.03;6180321;23;21337;-68
2023/08/17 08:41:01;;;;;;;9.55;8.70;;;;;;;20.17;98.92;101097.44;6177469;23;20095;-69
2023/08/17 08:43:28;;;;;;;10.60;9.60;;;;;;;19.98;100.00;101151.44;6177040;23;20546;-69
2023/08/17 08:45:55;;;;;;;11.15;9.50;;;;;;;20.05;100.00;101203.25;6198443;23;20024;-68
2023/08/17 08:48:23;;;;;;;11.75;9.63;;;;;;;19.35;100.00;101047.56;6169853;23;20020;-68
2023/08/17 08:50:52;;;;;;;9.90;8.90;;;;;;;20.09;100.00;101151.38;6167679;23;20020;-69
2023/08/17 08:53:27;;;;;;;10.30;9.05;;;;;;;19.45;100.00;101059.09;6200281;23;20030;-69
2023/08/17 08:55:59;;;;;;;10.05;9.15;;;;;;;20.04;100.00;101160.75;6200818;23;20012;-68
2023/08/17 08:58:28;;;;;;;10.50;9.32;;;;;;;20.35;100.00;101200.75;6200395;23;20088;-68
2023/08/17 09:00:57;;;;;;;10.23;9.23;;;;;;;20.05;100.00;101104.66;6200648;23;20019;-68
2023/08/17 09:03:26;;;;;;;10.45;9.35;;;;;;;20.40;100.00;101171.91;6200250;23;20104;-74
2023/08/17 09:05:53;;;;;;;10.10;9.10;;;;;;;20.54;100.00;101158.19;6171835;23;20099;-68
2023/08/17 09:08:27;;;;;;;13.50;9.38;;;;;;;20.54;98.73;101118.22;6202886;23;20028;-68
2023/08/17 09:10:54;;;;;;;11.25;9.65;;;;;;;19.62;98.48;101001.75;6171149;23;20250;-69
2023/08/17 09:13:20;;;;;;;9.45;8.57;;;;;;;20.42;99.41;101128.13;6200762;23;20024;-68
2023/08/17 09:15:47;;;;;;;10.80;9.10;;;;;;;20.39;100.00;101151.56;6199356;23;20087;-69
2023/08/17 09:18:13;;;;;;;11.43;10.23;;;;;;;19.24;100.00;101020.97;6199173;23;20020;-70
2023/08/17 09:20:42;;;;;;;9.82;8.93;;;;;;;20.33;100.00;101151.09;6199720;23;20008;-71
2023/08/17 09:23:22;;;;;;;12.45;9.27;;;;;;;20.24;100.00;101170.53;6199268;23;20710;-70
2023/08/17 09:25:51;;;;;;;10.55;9.48;;;;;;;20.28;100.00;101179.97;6200874;23;20027;-71
2023/08/17 09:28:20;;;;;;;9.85;8.95;;;;;;;20.41;100.00;101177.09;6199029;23;20031;-68
2023/08/17 09:30:53;;;;;;;14.60;10.02;;;;;;;19.36;100.00;100990.66;6198891;23;20024;-68
2023/08/17 09:33:22;;;;;;;11.27;10.00;;;;;;;20.22;100.00;101129.84;6202588;23;20091;-69
2023/08/17 09:35:51;;;;;;;11.93;9.75;;;;;;;20.39;100.00;101149.72;6174084;23;20057;-68
2023/08/17 09:38:24;;;;;;;11.15;9.68;;;;;;;20.53;100.00;101148.53;6199922;23;20092;-69
2023/08/17 09:40:52;;;;;;;14.98;12.02;;;;;;;19.74;98.53;101002.56;6168956;23;20031;-68
2023/08/17 09:43:22;;;;;;;15.98;10.75;;;;;;;20.67;98.29;101113.53;6195300;23;20610;-68
2023/08/17 09:45:51;;;;;;;9.50;8.60;;;;;;;20.65;100.00;101131.47;6173815;23;20019;-68
2023/08/17 09:48:18;;;;;;;10.23;9.32;;;;;;;20.93;99.15;101134.38;6195637;23;20492;-68
2023/08/17 09:50:46;;;;;;;10.07;9.00;;;;;;;20.62;99.66;101129.06;6201450;23;20458;-69
2023/08/17 09:53:14;;;;;;;9.73;8.93;;;;;;;19.78;100.00;101001.31;6202670;23;20036;-68
2023/08/17 09:55:42;;;;;;;12.77;9.95;;;;;;;20.17;100.00;101105.44;6199464;23;20059;-68
2023/08/17 09:58:15;;;;;;;11.88;9.55;;;;;;;19.88;100.00;101114.06;6169847;23;20077;-68
2023/08/17 10:00:50;;;;;;;11.15;9.60;;;;;;;19.63;100.00;101031.91;6170670;23;20024;-68
2023/08/17 10:03:19;;;;;;;12.07;9.85;;;;;;;20.39;100.00;101140.91;6192692;23;20696;-68
2023/08/17 10:05:58;;;;;;;12.35;10.10;;;;;;;20.30;100.00;101151.34;6197032;23;20020;-68
2023/08/17 10:08:27;;;;;;;10.75;9.07;;;;;;;20.23;100.00;101158.19;6196996;23;20052;-68
2023/08/17 10:10:55;;;;;;;11.02;9.93;;;;;;;19.86;100.00;101133.84;6178056;23;20044;-69
2023/08/17 10:13:31;;;;;;;11.90;9.50;;;;;;;20.00;100.00;101191.28;6182508;23;20031;-68
2023/08/17 10:16:08;;;;;;;12.68;10.68;;;;;;;19.58;100.00;101124.63;6176603;23;20024;-68
2023/08/17 10:18:41;;;;;;;10.55;9.55;;;;;;;20.12;100.00;101222.22;6204648;23;20087;-68
2023/08/17 10:21:17;;;;;;;10.18;9.10;;;;;;;20.19;100.00;101196.75;6204703;23;20059;-68
2023/08/17 10:23:45;;;;;;;11.40;9.80;;;;;;;20.01;100.00;101155.69;6204345;23;20048;-68
2023/08/17 10:26:12;;;;;;;10.98;9.48;;;;;;;20.18;100.00;101181.72;6200097;23;20544;-68
2023/08/17 10:28:40;;;;;;;12.25;9.88;;;;;;;19.88;100.00;101156.69;6160152;23;20776;-68
2023/08/17 10:31:07;;;;;;;10.32;9.43;;;;;;;20.48;100.00;101196.06;6204990;23;20054;-68
2023/08/17 10:33:39;;;;;;;11.02;9.90;;;;;;;20.64;100.00;101167.13;6182408;23;20014;-69
2023/08/17 10:36:06;;;;;;;11.05;9.88;;;;;;;19.73;100.00;100988.41;6206421;23;20673;-68
2023/08/17 10:38:33;;;;;;;11.82;10.23;;;;;;;20.61;100.00;101145.22;6203728;23;20033;-71
2023/08/17 10:41:11;;;;;;;11.75;10.55;;;;;;;19.83;100.00;101043.56;6194555;23;20104;-68
2023/08/17 10:43:56;;;;;;;10.13;9.15;;;;;;;20.79;100.00;101158.75;6189231;23;20024;-69
2023/08/17 10:46:33;;;;;;;12.52;10.45;;;;;;;20.80;100.00;101155.94;6203892;23;20039;-68
2023/08/17 10:49:04;;;;;;;10.05;9.15;;;;;;;20.80;100.00;101177.28;6199254;23;20028;-68
2023/08/17 10:51:30;;;;;;;10.93;9.80;;;;;;;20.97;100.00;101164.28;6205128;23;20043;-70
2023/08/17 10:54:00;;;;;;;13.32;9.73;;;;;;;20.47;98.49;101029.09;6206030;23;20027;-68
2023/08/17 10:56:28;;;;;;;16.98;10.35;;;;;;;21.37;95.60;101120.66;6201669;23;20051;-68
2023/08/17 10:58:59;;;;;;;15.07;10.05;;;;;;;21.41;94.44;101092.69;6202592;23;20601;-69
2023/08/17 11:01:35;;;;;;;13.65;9.75;;;;;;;21.56;91.81;101069.94;6175700;23;20012;-68
2023/08/17 11:04:17;;;;;;;12.20;9.82;;;;;;;21.73;91.03;101057.69;6201648;23;20068;-68
2023/08/17 11:06:45;;;;;;;10.30;9.30;;;;;;;20.70;91.57;100915.03;6201602;23;20091;-68
2023/08/17 11:09:12;;;;;;;13.73;9.98;;;;;;;21.35;91.46;100995.34;6204229;23;20011;-71
2023/08/17 11:11:38;;;;;;;12.13;9.45;;;;;;;21.44;91.00;101031.03;6176125;23;20114;-68
2023/08/17 11:14:05;;;;;;;11.75;9.80;;;;;;;21.84;89.85;101049.50;6173585;23;20368;-68
2023/08/17 11:16:31;;;;;;;11.95;9.05;;;;;;;21.47;90.34;101026.25;6204330;23;20094;-68
2023/08/17 11:19:00;;;;;;;11.13;9.13;;;;;;;21.64;92.86;101106.63;6197135;23;20016;-71